Ellsworth, MI (49729)

11:50 PM EST on November 26, 2014 (GMT -0500)
APRSWXNET East Jordan MI US | Change Station
CLOSE
Current Station
Personal Weather Station
Location: Ellsworth, MI
Elevation: 705 ft
Nearby Weather Stations

Elev 705 ft 45.18 °N, 85.20 °W | Updated 50 minutes ago

Overcast
Overcast
25 °F
Feels Like 25 °F
N
0
Wind Variable Wind from South
Gusts 3.0 mph

Today
High -- | Low -- °F
--% Chance of Precip.
Yesterday
High -- | Low -- °F
Precip. -- in
7:53 AM 5:02 PM
Waxing Crescent, 26% visible
Pressure 30.13 in
Visibility 10.0 miles
Clouds Mostly Cloudy 2900 ft
Overcast 3500 ft
Windchill 25 °F
Dew Point 23 °F
Humidity 91%
Rainfall 0.00 in
Snow Depth Not available.
UV 0 out of 12
Pollen .10 out of 12
Air Quality Not available.
Flu Activity Not available.
METAR KACB 270437Z AUTO 00000KT 10SM BKN029 OVC035 M03/M04 A3013 RMK AO2 T10291038

More Conditions Fewer Conditions

Pressure 30.13 in
Visibility 10.0 miles
Clouds Mostly Cloudy 2900 ft
Overcast 3500 ft
Windchill 25 °F
Dew Point 23 °F
Humidity 91%
Rainfall 0.00 in
Snow Depth Not available.
UV 0 out of 12
Pollen .10 out of 12
Air Quality Not available.
Flu Activity Not available.
METAR KACB 270437Z AUTO 00000KT 10SM BKN029 OVC035 M03/M04 A3013 RMK AO2 T10291038

More Conditions Fewer Conditions

Nowcast | as of 11:00 PM EST on November 26, 2014

At 12 am...cloudy. Occasional flurries. Temperature 23. Light winds. At 2 am...snow showers. Temperature 23. Light winds. At 4 am...snow showers. Temperature 24. Light winds. At 6 am...snow showers. Temperature 23. Light winds.

×

10-Day Weather Forecast

Almanac

Astronomy

Nov. 26, 2014 Rise Set
Actual Time
Civil Twilight
Nautical Twilight
Astronomical Twilight
Moon
Length of Visible Light
Length of Day
Tomorrow will be .
, % of the Moon is Illuminated

Today's Extremes

State Highs State Lows

Community

WunderPhotos

Upload Photos

1,773,959 photos uploaded!

WunderBlogs® & News

Nearby

Air Quality

  Air Quality AQ Index Pollutant
Not available.

Snow Depth

Station Depth Elevation

Earthquake Activity

City Distance Mag. Time & Date
Minimum magnitude displayed is 2.5.

Coastal Water Temperatures

Place Temperature

Nearby Weather Stations